sensor_id;sensor_type;location;lat;lon;timestamp;P1;durP1;ratioP1;P2;durP2;ratioP2
29162;SDS011;20331;53.144;8.208;2022-07-12T00:03:42;0.70;;;0.63;;
29162;SDS011;20331;53.144;8.208;2022-07-12T00:14:04;0.63;;;0.63;;
29162;SDS011;20331;53.144;8.208;2022-07-12T00:24:26;1.10;;;0.65;;
29162;SDS011;20331;53.144;8.208;2022-07-12T00:34:47;0.73;;;0.65;;
29162;SDS011;20331;53.144;8.208;2022-07-12T00:45:10;1.10;;;0.73;;
29162;SDS011;20331;53.144;8.208;2022-07-12T00:55:32;0.70;;;0.70;;
29162;SDS011;20331;53.144;8.208;2022-07-12T01:05:54;0.80;;;0.75;;
29162;SDS011;20331;53.144;8.208;2022-07-12T01:16:16;0.73;;;0.70;;
29162;SDS011;20331;53.144;8.208;2022-07-12T01:26:38;0.80;;;0.80;;
29162;SDS011;20331;53.144;8.208;2022-07-12T01:37:00;1.02;;;0.70;;
29162;SDS011;20331;53.144;8.208;2022-07-12T01:47:24;0.70;;;0.70;;
29162;SDS011;20331;53.144;8.208;2022-07-12T01:57:48;0.80;;;0.77;;
29162;SDS011;20331;53.144;8.208;2022-07-12T02:08:10;0.90;;;0.80;;
29162;SDS011;20331;53.144;8.208;2022-07-12T02:18:32;0.80;;;0.80;;
29162;SDS011;20331;53.144;8.208;2022-07-12T02:28:54;0.93;;;0.70;;
29162;SDS011;20331;53.144;8.208;2022-07-12T02:39:16;1.63;;;0.80;;
29162;SDS011;20331;53.144;8.208;2022-07-12T02:49:37;0.80;;;0.80;;
29162;SDS011;20331;53.144;8.208;2022-07-12T02:59:59;1.55;;;1.00;;
29162;SDS011;20331;53.144;8.208;2022-07-12T03:10:21;1.20;;;1.10;;
29162;SDS011;20331;53.144;8.208;2022-07-12T03:20:42;1.17;;;1.08;;
29162;SDS011;20331;53.144;8.208;2022-07-12T03:31:04;3.50;;;1.90;;
29162;SDS011;20331;53.144;8.208;2022-07-12T03:41:26;3.63;;;1.75;;
29162;SDS011;20331;53.144;8.208;2022-07-12T03:51:47;1.40;;;1.30;;
29162;SDS011;20331;53.144;8.208;2022-07-12T04:02:09;1.02;;;1.02;;
29162;SDS011;20331;53.144;8.208;2022-07-12T04:12:31;1.42;;;1.33;;
29162;SDS011;20331;53.144;8.208;2022-07-12T04:22:53;1.88;;;1.50;;
29162;SDS011;20331;53.144;8.208;2022-07-12T04:33:16;2.60;;;2.00;;
29162;SDS011;20331;53.144;8.208;2022-07-12T04:43:38;1.38;;;1.27;;
29162;SDS011;20331;53.144;8.208;2022-07-12T04:53:59;2.63;;;1.20;;
29162;SDS011;20331;53.144;8.208;2022-07-12T05:04:21;1.70;;;1.60;;
29162;SDS011;20331;53.144;8.208;2022-07-12T05:14:43;1.73;;;1.30;;
29162;SDS011;20331;53.144;8.208;2022-07-12T05:25:04;1.73;;;1.27;;
29162;SDS011;20331;53.144;8.208;2022-07-12T05:35:29;1.55;;;1.27;;
29162;SDS011;20331;53.144;8.208;2022-07-12T05:45:51;2.80;;;1.50;;
29162;SDS011;20331;53.144;8.208;2022-07-12T05:56:13;2.40;;;1.40;;
29162;SDS011;20331;53.144;8.208;2022-07-12T06:06:35;1.83;;;1.52;;
29162;SDS011;20331;53.144;8.208;2022-07-12T06:16:56;2.05;;;1.48;;
29162;SDS011;20331;53.144;8.208;2022-07-12T06:27:21;1.55;;;1.30;;
29162;SDS011;20331;53.144;8.208;2022-07-12T06:37:42;1.60;;;1.50;;
29162;SDS011;20331;53.144;8.208;2022-07-12T06:48:04;2.15;;;1.60;;
29162;SDS011;20331;53.144;8.208;2022-07-12T06:58:26;1.70;;;1.60;;
29162;SDS011;20331;53.144;8.208;2022-07-12T07:08:48;2.38;;;2.17;;
29162;SDS011;20331;53.144;8.208;2022-07-12T07:19:09;3.30;;;3.00;;
29162;SDS011;20331;53.144;8.208;2022-07-12T07:29:31;3.40;;;2.97;;
29162;SDS011;20331;53.144;8.208;2022-07-12T07:40:12;3.60;;;3.30;;
29162;SDS011;20331;53.144;8.208;2022-07-12T07:50:33;5.38;;;3.20;;
29162;SDS011;20331;53.144;8.208;2022-07-12T08:00:55;5.30;;;3.40;;
29162;SDS011;20331;53.144;8.208;2022-07-12T08:11:20;4.38;;;3.47;;
29162;SDS011;20331;53.144;8.208;2022-07-12T08:21:41;4.50;;;3.20;;
29162;SDS011;20331;53.144;8.208;2022-07-12T08:32:03;2.60;;;2.28;;
29162;SDS011;20331;53.144;8.208;2022-07-12T08:42:25;2.40;;;1.80;;
29162;SDS011;20331;53.144;8.208;2022-07-12T08:52:47;2.10;;;1.98;;
29162;SDS011;20331;53.144;8.208;2022-07-12T09:03:10;4.10;;;2.20;;
29162;SDS011;20331;53.144;8.208;2022-07-12T09:24:12;2.70;;;2.38;;
29162;SDS011;20331;53.144;8.208;2022-07-12T09:34:34;2.22;;;2.03;;
29162;SDS011;20331;53.144;8.208;2022-07-12T09:45:15;2.85;;;2.47;;
29162;SDS011;20331;53.144;8.208;2022-07-12T09:55:38;5.55;;;3.20;;
29162;SDS011;20331;53.144;8.208;2022-07-12T10:06:02;1.98;;;1.80;;
29162;SDS011;20331;53.144;8.208;2022-07-12T10:16:25;1.60;;;1.50;;
29162;SDS011;20331;53.144;8.208;2022-07-12T10:26:50;1.35;;;1.25;;
29162;SDS011;20331;53.144;8.208;2022-07-12T10:37:12;1.10;;;1.00;;
29162;SDS011;20331;53.144;8.208;2022-07-12T10:47:53;0.57;;;0.57;;
29162;SDS011;20331;53.144;8.208;2022-07-12T10:58:32;0.70;;;0.70;;
29162;SDS011;20331;53.144;8.208;2022-07-12T11:09:01;2.05;;;0.85;;
29162;SDS011;20331;53.144;8.208;2022-07-12T11:19:25;2.05;;;0.70;;
29162;SDS011;20331;53.144;8.208;2022-07-12T11:29:58;1.20;;;0.43;;
29162;SDS011;20331;53.144;8.208;2022-07-12T12:01:12;0.50;;;0.32;;
29162;SDS011;20331;53.144;8.208;2022-07-12T12:11:33;0.93;;;0.40;;
29162;SDS011;20331;53.144;8.208;2022-07-12T12:21:55;1.75;;;0.20;;
29162;SDS011;20331;53.144;8.208;2022-07-12T12:32:17;0.28;;;0.28;;
29162;SDS011;20331;53.144;8.208;2022-07-12T12:42:39;0.50;;;0.43;;
29162;SDS011;20331;53.144;8.208;2022-07-12T12:53:06;1.98;;;0.40;;
29162;SDS011;20331;53.144;8.208;2022-07-12T13:03:34;0.22;;;0.22;;
29162;SDS011;20331;53.144;8.208;2022-07-12T13:13:56;0.85;;;0.40;;
29162;SDS011;20331;53.144;8.208;2022-07-12T13:24:19;0.57;;;0.50;;
29162;SDS011;20331;53.144;8.208;2022-07-12T13:34:41;1.10;;;0.40;;
29162;SDS011;20331;53.144;8.208;2022-07-12T13:45:03;0.50;;;0.50;;
29162;SDS011;20331;53.144;8.208;2022-07-12T13:55:24;1.10;;;0.50;;
29162;SDS011;20331;53.144;8.208;2022-07-12T14:05:46;0.50;;;0.50;;
29162;SDS011;20331;53.144;8.208;2022-07-12T14:16:08;0.63;;;0.63;;
29162;SDS011;20331;53.144;8.208;2022-07-12T14:26:30;1.75;;;0.70;;
29162;SDS011;20331;53.144;8.208;2022-07-12T14:36:51;0.70;;;0.70;;
29162;SDS011;20331;53.144;8.208;2022-07-12T14:47:13;0.93;;;0.70;;
29162;SDS011;20331;53.144;8.208;2022-07-12T14:57:36;0.68;;;0.60;;
29162;SDS011;20331;53.144;8.208;2022-07-12T15:07:58;1.20;;;0.63;;
29162;SDS011;20331;53.144;8.208;2022-07-12T15:18:19;0.50;;;0.50;;
29162;SDS011;20331;53.144;8.208;2022-07-12T15:28:55;3.85;;;0.55;;
29162;SDS011;20331;53.144;8.208;2022-07-12T15:39:18;0.70;;;0.50;;
29162;SDS011;20331;53.144;8.208;2022-07-12T15:49:40;0.43;;;0.43;;
29162;SDS011;20331;53.144;8.208;2022-07-12T16:00:04;0.60;;;0.45;;
29162;SDS011;20331;53.144;8.208;2022-07-12T16:10:31;1.25;;;0.35;;
29162;SDS011;20331;53.144;8.208;2022-07-12T16:20:54;1.00;;;0.50;;
29162;SDS011;20331;53.144;8.208;2022-07-12T16:31:16;0.40;;;0.40;;
29162;SDS011;20331;53.144;8.208;2022-07-12T17:54:50;2.83;;;1.05;;
29162;SDS011;20331;53.144;8.208;2022-07-12T18:05:11;0.75;;;0.70;;
29162;SDS011;20331;53.144;8.208;2022-07-12T18:15:33;0.95;;;0.50;;
29162;SDS011;20331;53.144;8.208;2022-07-12T18:25:54;0.50;;;0.50;;
29162;SDS011;20331;53.144;8.208;2022-07-12T18:36:16;0.75;;;0.65;;
29162;SDS011;20331;53.144;8.208;2022-07-12T18:46:37;2.85;;;0.50;;
29162;SDS011;20331;53.144;8.208;2022-07-12T18:56:59;0.75;;;0.50;;
29162;SDS011;20331;53.144;8.208;2022-07-12T19:07:21;1.42;;;1.00;;
29162;SDS011;20331;53.144;8.208;2022-07-12T19:17:42;1.63;;;0.90;;
29162;SDS011;20331;53.144;8.208;2022-07-12T19:28:04;3.33;;;1.00;;
29162;SDS011;20331;53.144;8.208;2022-07-12T19:38:28;2.50;;;0.88;;
29162;SDS011;20331;53.144;8.208;2022-07-12T19:48:49;0.75;;;0.70;;
29162;SDS011;20331;53.144;8.208;2022-07-12T19:59:11;0.80;;;0.80;;
29162;SDS011;20331;53.144;8.208;2022-07-12T20:09:33;1.63;;;0.93;;
29162;SDS011;20331;53.144;8.208;2022-07-12T20:19:55;1.73;;;1.17;;
29162;SDS011;20331;53.144;8.208;2022-07-12T20:30:16;2.95;;;1.20;;
29162;SDS011;20331;53.144;8.208;2022-07-12T20:40:38;1.33;;;0.88;;
29162;SDS011;20331;53.144;8.208;2022-07-12T20:51:00;3.95;;;0.90;;
29162;SDS011;20331;53.144;8.208;2022-07-12T21:01:22;4.70;;;1.00;;
29162;SDS011;20331;53.144;8.208;2022-07-12T21:11:43;1.35;;;0.90;;
29162;SDS011;20331;53.144;8.208;2022-07-12T21:22:05;3.92;;;1.40;;
29162;SDS011;20331;53.144;8.208;2022-07-12T21:32:27;1.17;;;1.08;;
29162;SDS011;20331;53.144;8.208;2022-07-12T21:42:49;2.80;;;1.25;;
29162;SDS011;20331;53.144;8.208;2022-07-12T21:53:11;3.30;;;1.60;;
29162;SDS011;20331;53.144;8.208;2022-07-12T22:03:33;1.20;;;1.05;;
29162;SDS011;20331;53.144;8.208;2022-07-12T22:13:55;3.05;;;1.00;;
29162;SDS011;20331;53.144;8.208;2022-07-12T22:24:17;2.13;;;0.90;;
29162;SDS011;20331;53.144;8.208;2022-07-12T22:34:38;2.28;;;0.90;;
29162;SDS011;20331;53.144;8.208;2022-07-12T22:45:00;1.90;;;0.90;;
29162;SDS011;20331;53.144;8.208;2022-07-12T22:55:21;2.05;;;1.00;;
29162;SDS011;20331;53.144;8.208;2022-07-12T23:05:43;2.33;;;1.00;;
29162;SDS011;20331;53.144;8.208;2022-07-12T23:16:05;2.00;;;1.10;;
29162;SDS011;20331;53.144;8.208;2022-07-12T23:26:27;8.95;;;1.20;;
29162;SDS011;20331;53.144;8.208;2022-07-12T23:36:48;1.85;;;1.17;;
29162;SDS011;20331;53.144;8.208;2022-07-12T23:47:10;0.93;;;0.80;;
29162;SDS011;20331;53.144;8.208;2022-07-12T23:57:31;2.10;;;1.02;;
